Time;durP1;ratioP1;P1;durP2;ratioP2;P2;SDS_P1;SDS_P2;PMS_P1;PMS_P2;Temp;Humidity;BMP_temperature;BMP_pressure;BME280_temperature;BME280_humidity;BME280_pressure;Samples;Min_cycle;Max_cycle;Signal;HPM_P1;HPM_P2
2023/08/03 00:00:40;;;;;;;1.45;1.35;;;;;;;;;;2045017;28;20039;-81
2023/08/03 00:01:59;;;;;;;3.20;1.33;;;;;;;;;;2045264;28;20027;-79
2023/08/03 00:03:18;;;;;;;1.15;1.15;;;;;;;;;;2044727;28;20058;-82
2023/08/03 00:04:37;;;;;;;1.88;0.90;;;;;;;;;;2041152;28;20020;-81
2023/08/03 00:05:56;;;;;;;1.20;1.20;;;;;;;;;;2044000;28;20027;-81
2023/08/03 00:07:15;;;;;;;1.77;1.15;;;;;;;;;;2046247;28;20424;-81
2023/08/03 00:08:34;;;;;;;1.20;1.10;;;;;;;;;;2047571;28;20488;-81
2023/08/03 00:09:53;;;;;;;1.15;1.00;;;;;;;;;;2047853;28;20044;-81
2023/08/03 00:11:11;;;;;;;1.85;1.17;;;;;;;;;;2039711;28;20032;-82
2023/08/03 00:12:31;;;;;;;1.17;1.10;;;;;;;;;;2047824;28;20023;-80
2023/08/03 00:13:49;;;;;;;3.60;1.10;;;;;;;;;;2049313;28;20031;-81
2023/08/03 00:15:09;;;;;;;1.02;1.02;;;;;;;;;;2047027;28;20481;-80
2023/08/03 00:16:28;;;;;;;1.65;1.30;;;;;;;;;;2041275;28;20059;-82
2023/08/03 00:17:46;;;;;;;1.90;1.40;;;;;;;;;;2046863;28;20035;-83
2023/08/03 00:19:05;;;;;;;1.00;1.00;;;;;;;;;;2048911;28;20023;-81
2023/08/03 00:20:24;;;;;;;2.00;1.20;;;;;;;;;;2043874;28;20022;-82
2023/08/03 00:21:43;;;;;;;1.30;1.00;;;;;;;;;;2046100;28;20027;-81
2023/08/03 00:23:02;;;;;;;3.33;1.35;;;;;;;;;;2039780;28;20366;-82
2023/08/03 00:24:21;;;;;;;1.60;1.13;;;;;;;;;;2045007;28;20412;-81
2023/08/03 00:25:40;;;;;;;3.45;1.38;;;;;;;;;;2049428;28;20503;-81
2023/08/03 00:26:59;;;;;;;3.95;1.17;;;;;;;;;;2048560;28;20016;-80
2023/08/03 00:28:21;;;;;;;1.20;1.20;;;;;;;;;;2041082;28;20039;-81
2023/08/03 00:29:40;;;;;;;1.17;1.10;;;;;;;;;;2046221;29;20023;-81
2023/08/03 00:30:59;;;;;;;1.83;1.13;;;;;;;;;;2040481;28;20028;-82
2023/08/03 00:32:17;;;;;;;1.40;1.30;;;;;;;;;;2046133;28;20048;-82
2023/08/03 00:33:37;;;;;;;1.10;1.10;;;;;;;;;;2041740;28;20032;-81
2023/08/03 00:34:55;;;;;;;1.83;1.40;;;;;;;;;;2047442;28;20027;-82
2023/08/03 00:36:16;;;;;;;1.17;1.08;;;;;;;;;;2044475;28;20023;-81
2023/08/03 00:37:38;;;;;;;2.63;0.90;;;;;;;;;;2041450;28;20398;-81
2023/08/03 00:38:57;;;;;;;1.45;1.20;;;;;;;;;;2040983;28;20420;-82
2023/08/03 00:40:16;;;;;;;1.30;1.23;;;;;;;;;;2046197;28;21882;-82
2023/08/03 00:41:35;;;;;;;2.22;1.08;;;;;;;;;;2056808;28;20047;-81
2023/08/03 00:42:55;;;;;;;1.30;1.30;;;;;;;;;;2060185;28;20036;-82
2023/08/03 00:44:14;;;;;;;2.35;1.50;;;;;;;;;;2056217;28;20020;-81
2023/08/03 00:45:33;;;;;;;1.25;1.15;;;;;;;;;;2050053;28;20027;-78
2023/08/03 00:46:52;;;;;;;1.63;1.10;;;;;;;;;;2047973;28;20035;-81
2023/08/03 00:48:11;;;;;;;1.60;1.40;;;;;;;;;;2048980;28;20032;-81
2023/08/03 00:49:31;;;;;;;5.05;1.17;;;;;;;;;;2045481;28;20028;-80
2023/08/03 00:50:50;;;;;;;2.72;1.40;;;;;;;;;;2041824;28;20051;-81
2023/08/03 00:52:09;;;;;;;1.42;1.33;;;;;;;;;;2048702;28;20045;-81
2023/08/03 00:53:29;;;;;;;1.33;1.10;;;;;;;;;;2058260;28;20064;-81
2023/08/03 00:54:48;;;;;;;2.75;1.27;;;;;;;;;;2047545;28;20035;-80
2023/08/03 00:56:07;;;;;;;2.05;1.40;;;;;;;;;;2045966;28;20040;-80
2023/08/03 00:57:27;;;;;;;3.63;1.33;;;;;;;;;;2047531;28;20027;-81
2023/08/03 00:58:46;;;;;;;1.83;1.25;;;;;;;;;;2041198;28;20032;-80
2023/08/03 01:00:05;;;;;;;1.27;1.10;;;;;;;;;;2045866;28;20036;-80
2023/08/03 01:01:26;;;;;;;1.60;1.30;;;;;;;;;;2043446;28;20044;-81
2023/08/03 01:02:45;;;;;;;1.65;1.55;;;;;;;;;;2039950;28;20103;-81
2023/08/03 01:04:03;;;;;;;1.88;1.25;;;;;;;;;;2043148;28;20114;-79
2023/08/03 01:05:22;;;;;;;2.88;1.50;;;;;;;;;;2048397;28;20035;-82
2023/08/03 01:06:41;;;;;;;1.05;1.05;;;;;;;;;;2039547;28;20416;-81
2023/08/03 01:08:00;;;;;;;2.10;1.30;;;;;;;;;;2045997;28;20459;-80
2023/08/03 01:09:19;;;;;;;6.05;1.90;;;;;;;;;;2040595;28;20040;-81
2023/08/03 01:10:38;;;;;;;1.67;1.20;;;;;;;;;;2044975;28;20104;-82
2023/08/03 01:11:57;;;;;;;1.83;1.15;;;;;;;;;;2044010;28;20020;-81
2023/08/03 01:13:16;;;;;;;3.22;1.80;;;;;;;;;;2047170;28;20043;-81
2023/08/03 01:14:35;;;;;;;2.50;1.30;;;;;;;;;;2047394;28;20031;-81
2023/08/03 01:15:54;;;;;;;2.85;1.52;;;;;;;;;;2049216;28;20031;-80
2023/08/03 01:17:13;;;;;;;4.07;1.40;;;;;;;;;;2047003;28;20035;-82
2023/08/03 01:18:32;;;;;;;1.55;1.20;;;;;;;;;;2048957;28;20031;-80
2023/08/03 01:19:51;;;;;;;6.50;1.55;;;;;;;;;;2049421;28;20023;-80
2023/08/03 01:21:11;;;;;;;3.00;1.40;;;;;;;;;;2048693;28;20484;-81
2023/08/03 01:22:31;;;;;;;1.55;1.45;;;;;;;;;;2047530;28;20063;-80
2023/08/03 01:23:50;;;;;;;2.28;1.55;;;;;;;;;;2049980;28;20028;-81
2023/08/03 01:25:11;;;;;;;1.40;1.30;;;;;;;;;;2041216;28;20413;-82
2023/08/03 01:26:30;;;;;;;1.90;1.50;;;;;;;;;;2043364;28;20037;-82
2023/08/03 01:27:49;;;;;;;2.47;1.40;;;;;;;;;;2039331;28;20047;-82
2023/08/03 01:29:08;;;;;;;1.50;1.40;;;;;;;;;;2045982;28;20567;-82
2023/08/03 01:30:29;;;;;;;2.67;1.02;;;;;;;;;;2046865;28;20031;-81
2023/08/03 01:31:48;;;;;;;2.90;1.55;;;;;;;;;;2049478;28;20035;-81
2023/08/03 01:33:07;;;;;;;3.25;1.30;;;;;;;;;;2048655;28;20052;-82
2023/08/03 01:34:26;;;;;;;1.83;1.30;;;;;;;;;;2046528;28;20114;-84
2023/08/03 01:35:45;;;;;;;1.55;1.30;;;;;;;;;;2037358;28;20509;-82
2023/08/03 01:37:04;;;;;;;1.65;1.52;;;;;;;;;;2041321;28;20500;-83
2023/08/03 01:38:24;;;;;;;1.50;1.33;;;;;;;;;;2051058;28;20031;-81
2023/08/03 01:39:46;;;;;;;2.28;1.40;;;;;;;;;;2048284;28;20043;-81
2023/08/03 01:41:05;;;;;;;1.90;1.48;;;;;;;;;;2051628;28;20032;-81
2023/08/03 01:42:25;;;;;;;1.42;1.33;;;;;;;;;;2047363;28;20055;-83
2023/08/03 01:43:44;;;;;;;3.35;1.80;;;;;;;;;;2062609;28;20024;-83
2023/08/03 01:45:05;;;;;;;1.92;1.83;;;;;;;;;;2045023;28;20509;-82
2023/08/03 01:46:26;;;;;;;4.38;2.80;;;;;;;;;;2041842;28;20035;-83
2023/08/03 01:47:45;;;;;;;1.70;1.60;;;;;;;;;;2046212;28;20023;-81
2023/08/03 01:49:04;;;;;;;6.78;1.60;;;;;;;;;;2048425;29;20019;-82
2023/08/03 01:50:23;;;;;;;1.95;1.75;;;;;;;;;;2048087;28;20039;-79
2023/08/03 01:51:42;;;;;;;2.45;1.92;;;;;;;;;;2044008;28;20032;-82
2023/08/03 01:53:01;;;;;;;2.53;1.55;;;;;;;;;;2046484;28;20035;-83
2023/08/03 01:54:20;;;;;;;1.70;1.60;;;;;;;;;;2039141;28;20039;-83
2023/08/03 01:55:41;;;;;;;2.47;1.60;;;;;;;;;;2039153;28;20039;-83
2023/08/03 01:57:00;;;;;;;2.45;2.25;;;;;;;;;;2050643;28;20415;-83
2023/08/03 01:58:19;;;;;;;1.60;1.50;;;;;;;;;;2041109;28;20805;-83
2023/08/03 01:59:38;;;;;;;1.70;1.60;;;;;;;;;;2044578;28;20431;-83
2023/08/03 02:00:57;;;;;;;2.90;1.90;;;;;;;;;;2050528;28;20400;-82
2023/08/03 02:02:16;;;;;;;2.03;1.70;;;;;;;;;;2046181;28;20472;-82
2023/08/03 02:03:35;;;;;;;2.00;1.60;;;;;;;;;;2080850;28;20501;-81
2023/08/03 02:04:54;;;;;;;3.95;1.73;;;;;;;;;;2053517;28;20032;-80
2023/08/03 02:06:13;;;;;;;4.10;2.22;;;;;;;;;;2044052;28;20110;-83
2023/08/03 02:07:55;;;;;;;1.75;1.65;;;;;;;;;;2049278;28;20031;-80
2023/08/03 02:09:15;;;;;;;4.38;1.80;;;;;;;;;;2054810;28;20039;-81
2023/08/03 02:10:36;;;;;;;2.97;1.58;;;;;;;;;;2044098;28;20024;-81
2023/08/03 02:11:56;;;;;;;1.77;1.67;;;;;;;;;;2040783;28;20035;-79
2023/08/03 02:13:15;;;;;;;1.67;1.58;;;;;;;;;;2046822;28;20075;-82
2023/08/03 02:14:34;;;;;;;1.67;1.58;;;;;;;;;;2039253;28;20365;-83
2023/08/03 02:15:56;;;;;;;2.72;1.60;;;;;;;;;;2038827;28;20047;-81
2023/08/03 02:17:18;;;;;;;2.50;1.58;;;;;;;;;;2046222;28;20500;-80
2023/08/03 02:18:38;;;;;;;1.65;1.50;;;;;;;;;;2052834;28;20035;-81
2023/08/03 02:19:58;;;;;;;2.47;1.50;;;;;;;;;;2047000;28;20113;-81
2023/08/03 02:21:16;;;;;;;1.80;1.50;;;;;;;;;;2047923;28;20396;-81
2023/08/03 02:22:35;;;;;;;2.92;1.27;;;;;;;;;;2046514;28;20023;-80
2023/08/03 02:23:54;;;;;;;2.00;1.30;;;;;;;;;;2049829;28;20488;-81
2023/08/03 02:25:15;;;;;;;3.08;1.48;;;;;;;;;;2040153;28;20028;-81
2023/08/03 02:26:34;;;;;;;1.50;1.40;;;;;;;;;;2035688;28;20060;-80
2023/08/03 02:27:53;;;;;;;1.60;1.50;;;;;;;;;;2046443;28;20027;-81
2023/08/03 02:29:12;;;;;;;2.10;1.20;;;;;;;;;;2050687;28;20028;-81
2023/08/03 02:30:31;;;;;;;2.35;1.30;;;;;;;;;;2046478;28;20521;-81
2023/08/03 02:31:50;;;;;;;3.38;1.50;;;;;;;;;;2046579;28;20110;-81
2023/08/03 02:33:12;;;;;;;1.63;1.45;;;;;;;;;;2048662;28;20043;-80
2023/08/03 02:34:31;;;;;;;3.55;1.60;;;;;;;;;;2043849;28;20029;-79
2023/08/03 02:35:50;;;;;;;3.47;1.42;;;;;;;;;;2047121;28;20032;-82
2023/08/03 02:37:09;;;;;;;1.67;1.58;;;;;;;;;;2048047;28;20027;-80
2023/08/03 02:38:28;;;;;;;1.77;1.50;;;;;;;;;;2045963;28;20035;-82
2023/08/03 02:39:47;;;;;;;2.20;1.45;;;;;;;;;;2041659;28;20027;-81
2023/08/03 02:41:06;;;;;;;1.55;1.25;;;;;;;;;;2045698;28;20027;-83
2023/08/03 02:42:25;;;;;;;1.50;1.40;;;;;;;;;;2041054;28;20486;-81
2023/08/03 02:43:44;;;;;;;1.77;1.50;;;;;;;;;;2049508;28;20133;-81
2023/08/03 02:45:03;;;;;;;3.60;1.38;;;;;;;;;;2037217;28;20024;-81
2023/08/03 02:46:23;;;;;;;1.38;1.27;;;;;;;;;;2044939;28;20453;-81
2023/08/03 02:47:41;;;;;;;1.50;1.33;;;;;;;;;;2047650;28;20051;-81
2023/08/03 02:49:00;;;;;;;2.45;1.50;;;;;;;;;;2046805;28;20023;-81
2023/08/03 02:50:19;;;;;;;1.50;1.40;;;;;;;;;;2039482;28;20074;-78
2023/08/03 02:51:38;;;;;;;1.63;1.52;;;;;;;;;;2043647;28;20842;-80
2023/08/03 02:52:57;;;;;;;1.83;1.73;;;;;;;;;;2040608;28;20036;-81
2023/08/03 02:54:15;;;;;;;1.92;1.25;;;;;;;;;;2043086;28;20559;-79
2023/08/03 02:55:34;;;;;;;2.22;2.03;;;;;;;;;;2047376;28;20043;-81
2023/08/03 02:56:53;;;;;;;2.25;1.63;;;;;;;;;;2048264;28;20031;-82
2023/08/03 02:58:12;;;;;;;1.77;1.50;;;;;;;;;;2046344;28;20039;-82
2023/08/03 02:59:31;;;;;;;2.58;1.70;;;;;;;;;;2042261;28;20036;-81
2023/08/03 03:00:50;;;;;;;1.85;1.73;;;;;;;;;;2043621;28;20031;-81
2023/08/03 03:02:09;;;;;;;4.70;1.80;;;;;;;;;;2042996;28;20035;-81
2023/08/03 03:03:28;;;;;;;4.13;1.67;;;;;;;;;;2046404;28;20027;-81
2023/08/03 03:04:47;;;;;;;4.07;1.58;;;;;;;;;;2046456;28;20031;-81
2023/08/03 03:06:06;;;;;;;3.10;2.10;;;;;;;;;;2045322;28;20023;-83
2023/08/03 03:07:25;;;;;;;2.35;1.83;;;;;;;;;;2048174;28;20035;-82
2023/08/03 03:08:44;;;;;;;1.58;1.48;;;;;;;;;;2039845;28;20040;-82
2023/08/03 03:10:03;;;;;;;1.40;1.30;;;;;;;;;;2046437;28;20026;-79
2023/08/03 03:11:22;;;;;;;2.80;1.23;;;;;;;;;;2045145;28;20027;-81
2023/08/03 03:12:40;;;;;;;1.65;1.55;;;;;;;;;;2046847;28;20028;-79
2023/08/03 03:14:02;;;;;;;3.15;1.80;;;;;;;;;;2047790;28;20114;-82
2023/08/03 03:15:21;;;;;;;1.85;1.52;;;;;;;;;;2052233;28;20024;-82
2023/08/03 03:16:42;;;;;;;2.33;1.50;;;;;;;;;;2049089;28;20027;-80
2023/08/03 03:18:01;;;;;;;3.58;1.42;;;;;;;;;;2046157;28;20388;-80
2023/08/03 03:19:20;;;;;;;3.10;2.00;;;;;;;;;;2047928;28;20027;-81
2023/08/03 03:20:39;;;;;;;2.95;1.50;;;;;;;;;;2037263;28;20106;-82
2023/08/03 03:21:58;;;;;;;5.03;1.45;;;;;;;;;;2038312;28;20333;-81
2023/08/03 03:23:16;;;;;;;1.75;1.65;;;;;;;;;;2044695;28;20027;-82
2023/08/03 03:24:35;;;;;;;2.00;1.80;;;;;;;;;;2038611;28;20110;-81
2023/08/03 03:25:54;;;;;;;2.85;1.52;;;;;;;;;;2045305;28;20451;-82
2023/08/03 03:27:13;;;;;;;2.17;1.80;;;;;;;;;;2047653;28;20039;-82
2023/08/03 03:28:32;;;;;;;4.65;1.92;;;;;;;;;;2047511;28;20522;-83
2023/08/03 03:29:51;;;;;;;2.70;2.50;;;;;;;;;;2046629;28;20114;-83
2023/08/03 03:31:10;;;;;;;3.55;2.53;;;;;;;;;;2049368;28;20027;-82
2023/08/03 03:32:29;;;;;;;2.78;2.10;;;;;;;;;;2039925;28;20036;-83
2023/08/03 03:33:47;;;;;;;4.57;2.70;;;;;;;;;;2045727;28;20493;-83
2023/08/03 03:35:07;;;;;;;3.15;2.63;;;;;;;;;;2041087;28;20035;-84
2023/08/03 03:36:27;;;;;;;6.20;3.08;;;;;;;;;;2042755;28;20069;-82
2023/08/03 03:37:46;;;;;;;7.22;3.75;;;;;;;;;;2047662;28;20019;-82
2023/08/03 03:39:05;;;;;;;3.78;2.95;;;;;;;;;;2035491;28;20107;-83
2023/08/03 03:40:25;;;;;;;6.78;3.00;;;;;;;;;;2044571;28;20459;-79
2023/08/03 03:41:45;;;;;;;6.70;2.90;;;;;;;;;;2051268;28;20039;-80
2023/08/03 03:43:04;;;;;;;3.33;2.53;;;;;;;;;;2047411;28;20122;-79
2023/08/03 03:44:23;;;;;;;5.15;3.10;;;;;;;;;;2041711;28;20032;-79
2023/08/03 03:45:42;;;;;;;5.53;3.00;;;;;;;;;;2040214;28;20027;-80
2023/08/03 03:47:01;;;;;;;5.30;3.40;;;;;;;;;;2049210;28;21474;-78
2023/08/03 03:48:21;;;;;;;6.85;3.20;;;;;;;;;;2050142;28;20040;-79
2023/08/03 03:49:40;;;;;;;7.40;3.28;;;;;;;;;;2043597;28;20044;-79
2023/08/03 03:50:59;;;;;;;6.40;3.95;;;;;;;;;;2039253;28;20028;-80
2023/08/03 03:52:18;;;;;;;5.93;3.40;;;;;;;;;;2045180;28;20027;-79
2023/08/03 03:53:38;;;;;;;8.15;3.65;;;;;;;;;;2049254;28;20043;-80
2023/08/03 03:54:57;;;;;;;11.07;4.43;;;;;;;;;;2042348;28;20032;-80
2023/08/03 03:56:16;;;;;;;4.53;3.97;;;;;;;;;;2049360;28;20631;-78
2023/08/03 03:57:36;;;;;;;11.25;5.43;;;;;;;;;;2038900;28;20032;-79
2023/08/03 03:58:55;;;;;;;5.55;3.33;;;;;;;;;;2048915;28;20027;-79
2023/08/03 04:00:18;;;;;;;7.13;4.28;;;;;;;;;;2057870;28;20031;-80
2023/08/03 04:01:37;;;;;;;6.73;4.07;;;;;;;;;;2057531;28;20031;-79
2023/08/03 04:02:56;;;;;;;5.25;3.88;;;;;;;;;;2055803;28;20088;-78
2023/08/03 04:04:15;;;;;;;7.07;4.30;;;;;;;;;;2042717;28;20040;-78
2023/08/03 04:05:35;;;;;;;6.13;4.30;;;;;;;;;;2054114;28;20886;-80
2023/08/03 04:06:53;;;;;;;3.55;3.35;;;;;;;;;;2049159;28;20027;-78
2023/08/03 04:08:12;;;;;;;6.95;4.65;;;;;;;;;;2041105;28;20495;-78
2023/08/03 04:09:31;;;;;;;5.78;4.18;;;;;;;;;;2046730;28;20039;-77
2023/08/03 04:10:50;;;;;;;5.13;3.78;;;;;;;;;;2041358;28;20027;-78
2023/08/03 04:12:09;;;;;;;3.40;3.20;;;;;;;;;;2037428;28;20032;-78
2023/08/03 04:13:28;;;;;;;4.10;3.65;;;;;;;;;;2045543;28;20031;-78
2023/08/03 04:14:47;;;;;;;4.90;3.20;;;;;;;;;;2044140;28;20023;-78
2023/08/03 04:16:06;;;;;;;4.63;3.80;;;;;;;;;;2046309;28;20035;-78
2023/08/03 04:17:25;;;;;;;7.35;4.00;;;;;;;;;;2041234;28;20040;-78
2023/08/03 04:18:43;;;;;;;7.22;4.43;;;;;;;;;;2045740;28;20035;-79
2023/08/03 04:20:03;;;;;;;5.70;3.80;;;;;;;;;;2047174;28;20057;-79
2023/08/03 04:21:21;;;;;;;5.30;3.83;;;;;;;;;;2050189;28;20043;-77
2023/08/03 04:22:41;;;;;;;5.75;4.32;;;;;;;;;;2047767;28;20454;-78
2023/08/03 04:23:59;;;;;;;5.28;4.10;;;;;;;;;;2049188;28;20024;-79
2023/08/03 04:25:18;;;;;;;7.30;4.25;;;;;;;;;;2050010;28;20023;-78
2023/08/03 04:26:37;;;;;;;4.50;4.10;;;;;;;;;;2048121;28;20041;-79
2023/08/03 04:27:56;;;;;;;5.13;4.50;;;;;;;;;;2041540;28;20028;-78
2023/08/03 04:29:15;;;;;;;5.07;4.20;;;;;;;;;;2045305;28;20028;-78
2023/08/03 04:30:34;;;;;;;4.45;4.07;;;;;;;;;;2042641;28;20455;-78
2023/08/03 04:31:53;;;;;;;6.55;3.90;;;;;;;;;;2047572;28;20027;-79
2023/08/03 04:33:12;;;;;;;6.22;4.18;;;;;;;;;;2038674;28;20060;-79
2023/08/03 04:34:31;;;;;;;5.43;4.80;;;;;;;;;;2039096;28;20142;-78
2023/08/03 04:35:49;;;;;;;8.07;5.35;;;;;;;;;;2039562;28;20036;-79
2023/08/03 04:37:08;;;;;;;6.95;4.88;;;;;;;;;;2040921;29;20028;-79
2023/08/03 04:38:27;;;;;;;7.47;4.43;;;;;;;;;;2038582;28;20032;-77
2023/08/03 04:39:47;;;;;;;6.53;3.80;;;;;;;;;;2038940;28;20505;-79
2023/08/03 04:41:05;;;;;;;6.30;3.63;;;;;;;;;;2039006;28;20067;-80
2023/08/03 04:42:26;;;;;;;4.43;4.07;;;;;;;;;;2039062;28;20028;-79
2023/08/03 04:43:45;;;;;;;5.22;4.72;;;;;;;;;;2040575;28;20118;-79
2023/08/03 04:45:04;;;;;;;6.28;4.40;;;;;;;;;;2035619;28;20107;-79
2023/08/03 04:46:23;;;;;;;5.22;4.70;;;;;;;;;;2037936;28;20588;-80
2023/08/03 04:47:41;;;;;;;6.75;3.90;;;;;;;;;;2038951;28;20071;-78
2023/08/03 04:49:00;;;;;;;6.85;4.65;;;;;;;;;;2040731;28;20051;-79
2023/08/03 04:50:21;;;;;;;6.97;3.70;;;;;;;;;;2038209;28;20032;-78
2023/08/03 04:51:40;;;;;;;8.98;4.30;;;;;;;;;;2039602;28;20035;-78
2023/08/03 04:52:59;;;;;;;4.97;4.47;;;;;;;;;;2039808;28;20039;-79
2023/08/03 04:54:18;;;;;;;8.88;4.72;;;;;;;;;;2044371;28;20039;-78
2023/08/03 04:55:37;;;;;;;8.35;4.70;;;;;;;;;;2041083;28;20027;-80
2023/08/03 04:56:55;;;;;;;4.10;3.38;;;;;;;;;;2037208;28;20035;-78
2023/08/03 04:58:15;;;;;;;8.75;4.30;;;;;;;;;;2034717;28;20583;-79
2023/08/03 04:59:34;;;;;;;7.97;3.80;;;;;;;;;;2040806;28;20048;-77
2023/08/03 05:00:53;;;;;;;5.97;3.95;;;;;;;;;;2041577;28;20032;-79
2023/08/03 05:02:12;;;;;;;6.60;3.85;;;;;;;;;;2040373;28;20040;-77
2023/08/03 05:03:31;;;;;;;6.20;4.10;;;;;;;;;;2039598;28;20310;-77
2023/08/03 05:04:51;;;;;;;4.82;3.60;;;;;;;;;;2038726;28;20024;-78
2023/08/03 05:06:09;;;;;;;8.35;4.10;;;;;;;;;;2046848;28;20043;-77
2023/08/03 05:07:28;;;;;;;4.85;4.30;;;;;;;;;;2041784;28;20393;-77
2023/08/03 05:08:47;;;;;;;6.85;3.88;;;;;;;;;;2038452;28;20110;-77
2023/08/03 05:10:06;;;;;;;7.60;4.57;;;;;;;;;;2040425;28;20446;-78
2023/08/03 05:11:25;;;;;;;5.90;3.88;;;;;;;;;;2037740;28;20035;-78
2023/08/03 05:12:44;;;;;;;5.57;3.80;;;;;;;;;;2044843;28;20024;-78
2023/08/03 05:14:03;;;;;;;5.75;3.80;;;;;;;;;;2042760;28;20489;-78
2023/08/03 05:15:22;;;;;;;5.25;3.40;;;;;;;;;;2039709;28;20032;-78
2023/08/03 05:16:41;;;;;;;7.00;3.83;;;;;;;;;;2039650;29;20024;-77
2023/08/03 05:18:01;;;;;;;8.50;3.65;;;;;;;;;;2040118;28;20397;-79
2023/08/03 05:19:20;;;;;;;7.53;3.88;;;;;;;;;;2039596;28;20477;-77
2023/08/03 05:20:39;;;;;;;4.32;3.85;;;;;;;;;;2043038;28;20040;-77
2023/08/03 05:21:58;;;;;;;6.75;3.30;;;;;;;;;;2044121;28;20024;-77
2023/08/03 05:23:17;;;;;;;5.63;3.70;;;;;;;;;;2038529;28;20040;-77
2023/08/03 05:24:36;;;;;;;7.18;3.72;;;;;;;;;;2033832;28;20111;-77
2023/08/03 05:25:56;;;;;;;4.43;3.10;;;;;;;;;;2041005;28;20031;-77
2023/08/03 05:27:15;;;;;;;5.63;3.03;;;;;;;;;;2042900;28;20032;-77
2023/08/03 05:28:34;;;;;;;4.85;2.70;;;;;;;;;;2041156;28;20031;-77
2023/08/03 05:29:53;;;;;;;5.63;3.00;;;;;;;;;;2040398;28;20420;-77
2023/08/03 05:31:12;;;;;;;5.35;2.30;;;;;;;;;;2043598;28;20494;-77
2023/08/03 05:32:31;;;;;;;5.07;3.03;;;;;;;;;;2035795;28;20040;-77
2023/08/03 05:33:49;;;;;;;5.45;3.15;;;;;;;;;;2029227;28;20032;-76
2023/08/03 05:35:08;;;;;;;7.22;2.92;;;;;;;;;;2032585;28;20493;-77
2023/08/03 05:36:30;;;;;;;6.35;2.65;;;;;;;;;;2029707;28;20044;-77
2023/08/03 05:37:51;;;;;;;3.05;2.20;;;;;;;;;;2030992;28;20033;-77
2023/08/03 05:39:10;;;;;;;4.93;2.35;;;;;;;;;;2031945;28;20024;-77
2023/08/03 05:40:29;;;;;;;5.60;2.40;;;;;;;;;;2030563;28;20024;-77
2023/08/03 05:41:48;;;;;;;8.18;2.28;;;;;;;;;;2032602;28;20035;-77
2023/08/03 05:43:11;;;;;;;6.78;2.67;;;;;;;;;;2031025;28;20108;-77
2023/08/03 05:44:30;;;;;;;5.07;2.53;;;;;;;;;;2031449;28;20472;-78
2023/08/03 05:45:49;;;;;;;5.30;2.30;;;;;;;;;;2031987;28;20032;-76
2023/08/03 05:47:09;;;;;;;3.95;1.90;;;;;;;;;;2031741;28;20111;-78
2023/08/03 05:48:29;;;;;;;5.10;2.10;;;;;;;;;;2031607;28;20028;-77
2023/08/03 05:49:48;;;;;;;3.60;2.60;;;;;;;;;;2038765;28;20032;-77
2023/08/03 05:51:09;;;;;;;7.53;2.28;;;;;;;;;;2034965;28;20489;-77
2023/08/03 05:52:28;;;;;;;5.60;2.08;;;;;;;;;;2031952;28;20035;-76
2023/08/03 05:53:47;;;;;;;5.00;1.95;;;;;;;;;;2032131;28;20060;-77
2023/08/03 05:55:09;;;;;;;4.95;2.30;;;;;;;;;;2034267;28;20029;-77
2023/08/03 05:56:28;;;;;;;4.18;2.45;;;;;;;;;;2038896;28;20036;-77
2023/08/03 05:57:46;;;;;;;2.95;1.85;;;;;;;;;;2036643;28;20028;-77
2023/08/03 05:59:14;;;;;;;4.53;1.73;;;;;;;;;;2032520;28;20051;-78
2023/08/03 06:00:33;;;;;;;4.75;2.00;;;;;;;;;;2031017;28;20033;-77
2023/08/03 06:01:52;;;;;;;3.85;2.10;;;;;;;;;;2032324;28;20029;-78
2023/08/03 06:03:13;;;;;;;2.33;2.08;;;;;;;;;;2031327;28;20028;-77
2023/08/03 06:04:31;;;;;;;4.32;2.40;;;;;;;;;;2032714;28;20020;-78
2023/08/03 06:05:50;;;;;;;4.35;2.20;;;;;;;;;;2031877;28;20029;-77
2023/08/03 06:07:11;;;;;;;2.78;1.77;;;;;;;;;;2030450;28;20023;-76
2023/08/03 06:08:30;;;;;;;6.30;2.47;;;;;;;;;;2037586;28;20028;-76
2023/08/03 06:09:49;;;;;;;6.45;2.85;;;;;;;;;;2029575;28;20020;-77
2023/08/03 06:11:08;;;;;;;5.97;2.30;;;;;;;;;;2031986;28;20020;-76
2023/08/03 06:12:29;;;;;;;2.97;1.52;;;;;;;;;;2027660;28;20580;-76
2023/08/03 06:13:48;;;;;;;3.60;1.63;;;;;;;;;;2028659;28;20403;-76
2023/08/03 06:15:08;;;;;;;3.92;1.63;;;;;;;;;;2028662;28;20028;-78
2023/08/03 06:16:27;;;;;;;7.18;2.25;;;;;;;;;;2036049;28;20035;-82
2023/08/03 06:17:46;;;;;;;2.83;1.90;;;;;;;;;;2027463;28;20025;-77
2023/08/03 06:19:06;;;;;;;7.68;2.88;;;;;;;;;;2028862;28;20024;-77
2023/08/03 06:20:25;;;;;;;2.65;1.80;;;;;;;;;;2030091;28;20032;-77
2023/08/03 06:21:45;;;;;;;4.68;2.10;;;;;;;;;;2033706;28;20032;-76
2023/08/03 06:23:04;;;;;;;3.75;1.98;;;;;;;;;;2031830;28;20032;-78
2023/08/03 06:24:26;;;;;;;6.85;2.03;;;;;;;;;;2031424;28;20028;-78
2023/08/03 06:25:46;;;;;;;6.43;2.20;;;;;;;;;;2031669;28;20029;-77
2023/08/03 06:27:10;;;;;;;3.38;2.00;;;;;;;;;;2034031;28;20032;-77
2023/08/03 06:28:31;;;;;;;4.15;2.10;;;;;;;;;;2029870;28;20024;-79
2023/08/03 06:29:50;;;;;;;5.20;2.25;;;;;;;;;;2034628;28;20036;-79
2023/08/03 06:31:12;;;;;;;7.95;2.58;;;;;;;;;;2034432;28;20028;-78
2023/08/03 06:32:32;;;;;;;4.28;1.88;;;;;;;;;;2032115;28;20039;-78
2023/08/03 06:33:51;;;;;;;3.28;1.98;;;;;;;;;;2030985;28;20044;-77
2023/08/03 06:35:24;;;;;;;3.08;2.10;;;;;;;;;;2031441;28;20393;-80
2023/08/03 06:36:44;;;;;;;3.67;2.17;;;;;;;;;;2038506;28;20028;-79
2023/08/03 06:38:04;;;;;;;4.10;1.98;;;;;;;;;;2033522;28;20660;-81
2023/08/03 06:39:23;;;;;;;3.33;2.47;;;;;;;;;;2032582;28;20111;-79
2023/08/03 06:40:45;;;;;;;3.80;2.10;;;;;;;;;;2031893;28;20024;-83
2023/08/03 06:42:05;;;;;;;2.80;1.90;;;;;;;;;;2025715;28;20036;-79
2023/08/03 06:43:24;;;;;;;6.75;1.92;;;;;;;;;;2027669;28;20025;-81
2023/08/03 06:44:43;;;;;;;5.97;2.05;;;;;;;;;;2031095;28;20107;-79
2023/08/03 06:46:02;;;;;;;2.17;1.83;;;;;;;;;;2032194;28;20478;-79
2023/08/03 06:47:21;;;;;;;3.20;2.00;;;;;;;;;;2031743;28;20144;-78
2023/08/03 06:48:41;;;;;;;3.25;1.90;;;;;;;;;;2032562;28;20028;-79
2023/08/03 06:50:01;;;;;;;4.20;1.92;;;;;;;;;;2032362;28;20421;-79
2023/08/03 06:51:21;;;;;;;4.20;2.20;;;;;;;;;;2032424;28;20032;-78
2023/08/03 06:52:40;;;;;;;5.07;2.00;;;;;;;;;;2036104;28;20110;-78
2023/08/03 06:53:59;;;;;;;4.65;2.25;;;;;;;;;;2033929;28;20036;-78
2023/08/03 06:55:18;;;;;;;2.72;1.80;;;;;;;;;;2032145;28;20029;-77
2023/08/03 06:56:37;;;;;;;3.55;1.88;;;;;;;;;;2028938;28;20024;-78
2023/08/03 06:57:56;;;;;;;2.67;2.17;;;;;;;;;;2032473;28;20486;-78
2023/08/03 06:59:21;;;;;;;3.33;2.10;;;;;;;;;;2031651;29;20028;-79
2023/08/03 07:00:41;;;;;;;6.05;2.28;;;;;;;;;;2031068;28;20028;-78
2023/08/03 07:02:00;;;;;;;3.22;1.73;;;;;;;;;;2035074;28;20033;-77
2023/08/03 07:03:19;;;;;;;4.53;2.03;;;;;;;;;;2031389;28;20040;-78
2023/08/03 07:04:38;;;;;;;3.95;2.13;;;;;;;;;;2032157;29;20048;-77
2023/08/03 07:05:57;;;;;;;3.65;2.50;;;;;;;;;;2032097;28;20032;-79
2023/08/03 07:07:16;;;;;;;4.60;2.17;;;;;;;;;;2031174;28;20032;-79
2023/08/03 07:08:35;;;;;;;3.30;2.22;;;;;;;;;;2031509;28;20032;-77
2023/08/03 07:09:54;;;;;;;3.83;2.00;;;;;;;;;;2031985;28;20028;-78
2023/08/03 07:11:13;;;;;;;2.92;2.15;;;;;;;;;;2038138;28;20044;-79
2023/08/03 07:12:33;;;;;;;3.15;1.98;;;;;;;;;;2038265;28;20045;-78
2023/08/03 07:13:52;;;;;;;2.38;2.17;;;;;;;;;;2037555;28;20032;-76
2023/08/03 07:15:12;;;;;;;3.95;2.22;;;;;;;;;;2031823;28;20032;-80
2023/08/03 07:16:31;;;;;;;4.40;2.15;;;;;;;;;;2031586;28;20028;-78
2023/08/03 07:17:50;;;;;;;4.45;2.50;;;;;;;;;;2031706;28;20032;-78
2023/08/03 07:19:12;;;;;;;2.25;2.05;;;;;;;;;;2027897;28;20111;-78
2023/08/03 07:20:35;;;;;;;3.78;2.30;;;;;;;;;;2030860;29;20032;-84
2023/08/03 07:21:54;;;;;;;4.13;2.28;;;;;;;;;;2029683;28;20056;-80
2023/08/03 07:23:13;;;;;;;5.55;2.20;;;;;;;;;;2038272;28;20772;-81
2023/08/03 07:24:32;;;;;;;4.18;2.00;;;;;;;;;;2033563;28;20028;-82
2023/08/03 07:25:51;;;;;;;2.95;1.95;;;;;;;;;;2032856;28;20029;-81
2023/08/03 07:27:10;;;;;;;2.33;2.00;;;;;;;;;;2034800;28;20024;-78
2023/08/03 07:28:29;;;;;;;5.60;2.47;;;;;;;;;;2040644;28;20036;-78
2023/08/03 07:29:48;;;;;;;3.22;2.40;;;;;;;;;;2039794;28;20044;-81
2023/08/03 07:31:14;;;;;;;5.40;2.40;;;;;;;;;;2036912;28;20052;-80
2023/08/03 07:32:33;;;;;;;4.78;2.17;;;;;;;;;;2041224;28;20048;-79
2023/08/03 07:33:52;;;;;;;3.55;2.15;;;;;;;;;;2052077;28;20039;-79
2023/08/03 07:35:11;;;;;;;6.70;2.10;;;;;;;;;;2048762;28;20031;-79
2023/08/03 07:36:30;;;;;;;3.88;2.25;;;;;;;;;;2057420;28;20039;-79
2023/08/03 07:37:49;;;;;;;4.43;2.10;;;;;;;;;;2048288;28;20087;-80
2023/08/03 07:39:08;;;;;;;2.42;2.10;;;;;;;;;;2039502;28;20412;-80
2023/08/03 07:40:27;;;;;;;3.90;2.20;;;;;;;;;;2044313;28;20031;-78
2023/08/03 07:41:45;;;;;;;4.05;2.25;;;;;;;;;;2048623;28;20020;-81
2023/08/03 07:43:04;;;;;;;5.70;2.50;;;;;;;;;;2047946;28;20031;-78
2023/08/03 07:44:23;;;;;;;4.43;2.22;;;;;;;;;;2045996;28;20107;-78
2023/08/03 07:45:43;;;;;;;8.77;2.92;;;;;;;;;;2040770;28;20028;-76
2023/08/03 07:47:02;;;;;;;2.55;2.13;;;;;;;;;;2037614;28;20456;-77
2023/08/03 07:48:21;;;;;;;2.60;2.40;;;;;;;;;;2035711;28;20039;-78
2023/08/03 07:49:39;;;;;;;5.85;3.05;;;;;;;;;;2033134;28;20360;-78
2023/08/03 07:50:58;;;;;;;7.10;2.65;;;;;;;;;;2043472;28;20024;-79
2023/08/03 07:52:17;;;;;;;6.63;2.85;;;;;;;;;;2046114;28;20114;-80
2023/08/03 07:53:36;;;;;;;3.50;2.70;;;;;;;;;;2039027;28;20032;-78
2023/08/03 07:54:55;;;;;;;3.22;2.70;;;;;;;;;;2041817;28;20027;-77
2023/08/03 07:56:21;;;;;;;4.78;2.65;;;;;;;;;;2040035;28;20036;-79